createdAt,value
2022-09-18T00:04:40.265Z,538.37
2022-09-18T00:07:30.658Z,528.83
2022-09-18T00:13:53.783Z,517.27
2022-09-18T00:16:45.165Z,542.53
2022-09-18T00:19:38.469Z,520.07
2022-09-18T00:22:29.376Z,500.80
2022-09-18T00:25:23.280Z,459.03
2022-09-18T00:28:19.093Z,535.07
2022-09-18T00:31:11.740Z,566.30
2022-09-18T00:34:04.506Z,480.83
2022-09-18T00:36:54.619Z,431.83
2022-09-18T00:39:45.389Z,475.97
2022-09-18T00:42:35.821Z,483.10
2022-09-18T00:45:29.950Z,600.80
2022-09-18T00:48:20.831Z,567.10
2022-09-18T00:51:13.641Z,577.00
2022-09-18T00:54:12.929Z,506.77
2022-09-18T00:57:08.254Z,547.57
2022-09-18T01:00:00.725Z,541.87
2022-09-18T01:02:54.352Z,482.83
2022-09-18T01:06:02.933Z,509.70
2022-09-18T01:11:55.738Z,515.90
2022-09-18T01:14:58.489Z,521.63
2022-09-18T01:18:10.172Z,537.53
2022-09-18T01:21:14.104Z,505.80
2022-09-18T01:27:09.493Z,512.17
2022-09-18T01:30:14.913Z,528.97
2022-09-18T01:39:15.915Z,440.80
2022-09-18T01:42:10.041Z,471.20
2022-09-18T01:45:09.475Z,476.00
2022-09-18T01:48:03.205Z,320.40
2022-09-18T01:50:59.131Z,203.60
2022-09-18T01:53:54.252Z,194.50
2022-09-18T01:56:48.723Z,406.30
2022-09-18T01:59:44.672Z,407.27
2022-09-18T02:05:51.324Z,435.87
2022-09-18T02:08:48.473Z,419.47
2022-09-18T02:11:41.242Z,398.93
2022-09-18T02:14:35.712Z,401.43
2022-09-18T02:17:29.726Z,423.13
2022-09-18T02:20:28.071Z,452.77
2022-09-18T02:26:19.630Z,526.93
2022-09-18T02:29:13.578Z,483.97
2022-09-18T02:32:04.842Z,454.43
2022-09-18T02:34:55.272Z,469.17
2022-09-18T02:37:58.052Z,444.33
2022-09-18T02:40:56.308Z,490.17
2022-09-18T02:43:56.193Z,586.00
2022-09-18T02:46:57.955Z,567.50
2022-09-18T02:49:58.149Z,584.57
2022-09-18T02:52:57.965Z,608.27
2022-09-18T02:55:52.448Z,567.03
2022-09-18T02:58:48.754Z,585.60
2022-09-18T03:01:43.615Z,577.37
2022-09-18T03:04:34.086Z,504.43
2022-09-18T03:07:24.268Z,555.93
2022-09-18T03:10:17.015Z,595.17
2022-09-18T03:13:07.077Z,594.67
2022-09-18T03:15:57.994Z,566.17
2022-09-18T03:18:48.144Z,601.67
2022-09-18T03:21:40.205Z,582.03
2022-09-18T03:24:31.651Z,577.50
2022-09-18T03:27:24.456Z,635.27
2022-09-18T03:30:15.347Z,647.10
2022-09-18T03:33:05.947Z,607.40
2022-09-18T03:35:56.032Z,622.03
2022-09-18T03:38:46.126Z,634.07
2022-09-18T03:41:39.854Z,674.50
2022-09-18T03:44:33.649Z,665.97
2022-09-18T03:47:23.876Z,558.07
2022-09-18T03:50:15.359Z,566.30
2022-09-18T03:53:06.309Z,551.97
2022-09-18T03:55:56.777Z,665.17
2022-09-18T03:58:47.250Z,591.53
2022-09-18T04:01:40.473Z,590.63
2022-09-18T04:04:32.785Z,616.10
2022-09-18T04:10:21.297Z,648.50
2022-09-18T04:13:15.882Z,630.90
2022-09-18T04:19:08.135Z,623.60
2022-09-18T04:25:09.415Z,389.10
2022-09-18T04:28:00.524Z,243.00
2022-09-18T04:30:52.252Z,532.83
2022-09-18T04:33:42.293Z,645.93
2022-09-18T04:36:36.305Z,659.87
2022-09-18T04:39:37.095Z,614.70
2022-09-18T04:42:27.576Z,630.97
2022-09-18T04:45:17.913Z,668.23
2022-09-18T04:48:18.207Z,583.50
2022-09-18T04:51:09.490Z,617.40
2022-09-18T04:54:02.553Z,592.50
2022-09-18T04:56:52.766Z,601.37
2022-09-18T04:59:43.178Z,642.57
2022-09-18T05:02:33.447Z,620.90
2022-09-18T05:05:23.900Z,637.57
2022-09-18T05:08:13.999Z,669.00
2022-09-18T05:11:07.902Z,631.17
2022-09-18T05:13:58.716Z,596.10
2022-09-18T05:16:50.266Z,655.43
2022-09-18T05:19:40.281Z,648.30
2022-09-18T05:22:31.156Z,650.23
2022-09-18T05:25:22.453Z,600.13
2022-09-18T05:28:16.444Z,632.03
2022-09-18T05:31:06.972Z,623.33
2022-09-18T05:33:57.324Z,688.13
2022-09-18T05:36:52.214Z,718.53
2022-09-18T05:39:43.479Z,764.87
2022-09-18T05:42:33.787Z,770.40
2022-09-18T05:45:26.878Z,756.30
2022-09-18T05:48:17.077Z,771.40
2022-09-18T05:51:07.658Z,708.17
2022-09-18T05:53:57.986Z,716.77
2022-09-18T05:56:48.405Z,715.03
2022-09-18T05:59:38.565Z,770.47
2022-09-18T06:02:32.325Z,793.17
2022-09-18T06:05:22.532Z,814.00
2022-09-18T06:08:14.783Z,803.20
2022-09-18T06:11:06.780Z,860.30
2022-09-18T06:13:57.680Z,1151.20
2022-09-18T06:16:47.763Z,1143.73
2022-09-18T06:19:40.684Z,1127.87
2022-09-18T06:22:31.175Z,1055.33
2022-09-18T06:25:23.997Z,984.27
2022-09-18T06:28:14.062Z,1121.80
2022-09-18T06:31:11.095Z,1172.70
2022-09-18T06:34:01.243Z,1102.83
2022-09-18T06:36:54.409Z,1387.40
2022-09-18T06:42:43.913Z,1379.82
2022-09-18T06:48:40.341Z,1219.80
2022-09-18T06:51:31.176Z,1185.07
2022-09-18T06:54:26.855Z,1165.87
2022-09-18T06:57:16.986Z,1169.23
2022-09-18T07:00:09.219Z,1192.83
2022-09-18T07:05:52.467Z,1147.13
2022-09-18T07:08:42.702Z,1185.97
2022-09-18T07:11:36.613Z,1151.57
2022-09-18T07:14:26.956Z,1187.90
2022-09-18T07:17:19.223Z,1171.83
2022-09-18T07:20:16.091Z,1190.63
2022-09-18T07:23:06.606Z,1206.83
2022-09-18T07:25:56.781Z,1197.10
2022-09-18T07:28:49.453Z,1201.73
2022-09-18T07:31:39.725Z,1182.23
2022-09-18T07:34:30.134Z,1188.17
2022-09-18T07:37:21.602Z,1174.83
2022-09-18T07:40:14.815Z,1108.50
2022-09-18T07:43:09.719Z,1183.67
2022-09-18T07:46:02.829Z,1200.90
2022-09-18T07:48:53.144Z,1193.47
2022-09-18T07:51:43.349Z,502.47
2022-09-18T07:54:33.720Z,784.20
2022-09-18T07:57:24.032Z,741.00
2022-09-18T08:00:15.666Z,712.60
2022-09-18T08:03:11.808Z,714.17
2022-09-18T08:06:02.415Z,416.40
2022-09-18T08:08:55.027Z,504.70
2022-09-18T08:11:45.728Z,517.80
2022-09-18T08:14:36.848Z,525.10
2022-09-18T08:17:27.033Z,521.17
2022-09-18T08:20:27.799Z,676.53
2022-09-18T08:23:21.361Z,723.17
2022-09-18T08:26:12.097Z,882.33
2022-09-18T08:29:10.942Z,1188.20
2022-09-18T08:35:23.868Z,1148.77
2022-09-18T08:38:15.160Z,1068.43
2022-09-18T08:41:32.605Z,839.73
2022-09-18T08:44:26.873Z,966.70
2022-09-18T08:47:22.812Z,1187.17
2022-09-18T08:50:22.853Z,1144.53
2022-09-18T08:53:21.884Z,916.03
2022-09-18T08:56:18.994Z,482.93
2022-09-18T08:59:16.384Z,461.63
2022-09-18T09:02:24.853Z,437.33
2022-09-18T09:05:19.145Z,406.13
2022-09-18T09:08:35.495Z,403.67
2022-09-18T09:11:37.302Z,370.37
2022-09-18T09:14:57.949Z,377.20
2022-09-18T09:24:09.792Z,511.80
2022-09-18T09:33:34.753Z,1133.73
2022-09-18T09:36:43.990Z,994.03
2022-09-18T09:39:55.437Z,742.70
2022-09-18T09:42:52.635Z,747.37
2022-09-18T09:45:51.386Z,1002.50
2022-09-18T09:48:49.992Z,841.10
2022-09-18T09:52:05.703Z,1016.53
2022-09-18T09:55:08.889Z,828.40
2022-09-18T09:58:15.295Z,737.53
2022-09-18T10:01:16.894Z,764.17
2022-09-18T10:04:22.749Z,727.27
2022-09-18T10:07:23.137Z,698.30
2022-09-18T10:10:29.177Z,685.17
2022-09-18T10:13:26.551Z,674.13
2022-09-18T10:19:52.649Z,1178.80
2022-09-18T10:32:02.168Z,1190.00
2022-09-18T10:34:54.194Z,1194.73
2022-09-18T10:37:44.655Z,1182.80
2022-09-18T10:40:49.971Z,1200.13
2022-09-18T10:44:04.578Z,1193.40
2022-09-18T10:59:56.213Z,1193.17
2022-09-18T20:58:02.285Z,1117.27
2022-09-18T21:29:50.271Z,1128.97
2022-09-18T21:51:04.808Z,1125.27
2022-09-18T22:14:24.881Z,1130.43
2022-09-18T22:43:35.304Z,1121.40
2022-09-18T23:29:20.799Z,1091.23
2022-09-18T23:53:52.018Z,1093.83
